Yahata Maru — JL6477 — position and weather

sailwx.info

Track history (hours):
 
Tides and Currents Weather Stations Pressure Air Temp Water Temp Dewpoint Dewpoint Depression Visibility Wind Speed Wind Dir Waves Ship Positions

Yahata Maru

Last reported at 2014-Aug-21 06:26 UTC. Time now 2014-Aug-22 21:40 UTC.
Position N 34°47' E 139°07'.

Length 149 m; draft 4.7 m.

Type: Other ship. MMSI: 431400594.

Date/timePositionNaut miles runAvg speedWind from/ knotsBaromVisibWave heightAir tempDewpointWater temp
2014-Aug-21 06:26N 34°47' E 139°07'16 8.4
2014-Aug-21 04:31N 34°58' E 139°22'8 8.7
2014-Aug-21 03:33N 35°02' E 139°30'9 9.4
2014-Aug-21 02:33N 35°07' E 139°40'9 8.9
2014-Aug-21 01:33N 35°14' E 139°46'9 9.2
2014-Aug-21 00:33N 35°23' E 139°42'5 5.2
2014-Aug-20 23:33N 35°28' E 139°43'0 0.0
2014-Aug-20 22:33N 35°28' E 139°43'0 0.0
2014-Aug-20 21:33N 35°28' E 139°43'0 0.0
2014-Aug-20 20:33N 35°28' E 139°43'0 0.0
2014-Aug-20 19:33N 35°28' E 139°43'0 0.0
2014-Aug-20 18:33N 35°28' E 139°43'3 3.0
2014-Aug-20 17:33N 35°27' E 139°46'9 9.4
2014-Aug-20 16:33N 35°32' E 139°56'8 8.1
2014-Aug-20 15:33N 35°33' E 140°06'0 0.5
2014-Aug-20 14:33N 35°33' E 140°07'0 0.0
2014-Aug-20 13:33N 35°33' E 140°07'0 0.0
2014-Aug-20 12:30N 35°33' E 140°07'0 0.0
2014-Aug-20 11:27N 35°33' E 140°07'0 0.0
2014-Aug-20 10:30N 35°33' E 140°07'0 0.0
2014-Aug-20 09:33N 35°33' E 140°07'0 0.0
2014-Aug-20 08:33N 35°33' E 140°07'0 0.0
2014-Aug-20 07:33N 35°33' E 140°07'0 0.0
2014-Aug-20 06:30N 35°33' E 140°07'0 0.0
2014-Aug-20 05:33N 35°33' E 140°07'0 0.0
2014-Aug-20 04:30N 35°33' E 140°07'0 0.0
2014-Aug-20 03:30N 35°33' E 140°07'0 0.0
2014-Aug-20 02:33N 35°33' E 140°07'0 0.0
2014-Aug-20 01:33N 35°33' E 140°07'0 0.0
2014-Aug-20 00:33N 35°33' E 140°07'0 0.0
2014-Aug-19 23:27N 35°33' E 140°07'0 0.0
2014-Aug-19 22:33N 35°33' E 140°07'0 0.0
2014-Aug-19 21:33N 35°33' E 140°07'0 0.0
2014-Aug-19 20:33N 35°33' E 140°07'0 0.0
2014-Aug-19 19:30N 35°33' E 140°07'0 0.0
2014-Aug-19 18:33N 35°33' E 140°07'0 0.0
2014-Aug-19 17:33N 35°33' E 140°07'0 0.0
2014-Aug-19 16:30N 35°33' E 140°07'0 0.0
2014-Aug-19 15:33N 35°33' E 140°07'0 0.0
2014-Aug-19 14:33N 35°33' E 140°07'0 0.1
2014-Aug-19 13:33N 35°33' E 140°07'5 5.1
2014-Aug-19 12:34N 35°33' E 140°00'9 9.5
2014-Aug-19 11:34N 35°28' E 139°51'10 9.6
2014-Aug-19 10:34N 35°20' E 139°44'9 9.1
2014-Aug-19 09:33N 35°11' E 139°47'9 9.4
2014-Aug-19 08:33N 35°04' E 139°40'1010.0
2014-Aug-19 07:33N 34°57' E 139°30'  
2014-Aug-16 00:05N 34°34' E 134°49'5 9.8
2014-Aug-15 23:32N 34°36' E 134°54'7 7.3
2014-Aug-15 22:33N 34°36' E 135°03'8 8.1
2014-Aug-15 21:33N 34°36' E 135°13'9 8.6
2014-Aug-15 20:33N 34°42' E 135°21'1 0.7
2014-Aug-15 19:33N 34°43' E 135°21'0 0.0
2014-Aug-15 18:32N 34°43' E 135°21'0 0.0
2014-Aug-15 17:32N 34°43' E 135°21'0 0.0
2014-Aug-15 16:32N 34°43' E 135°21'0 0.0
2014-Aug-15 15:32N 34°43' E 135°21'0 0.0
2014-Aug-15 14:32N 34°43' E 135°21'0 0.0
2014-Aug-15 13:32N 34°43' E 135°21'0 0.0
2014-Aug-15 12:32N 34°43' E 135°21'0 0.0
2014-Aug-15 11:26N 34°43' E 135°21'0 0.0
2014-Aug-15 10:26N 34°43' E 135°21'0 0.2
2014-Aug-15 09:33N 34°43' E 135°21'2 1.3
2014-Aug-15 08:19N 34°42' E 135°20'0 0.2
2014-Aug-15 07:33N 34°41' E 135°20'1 0.7
2014-Aug-15 06:31N 34°42' E 135°21'0 0.0
2014-Aug-15 05:31N 34°42' E 135°21'0 0.0
2014-Aug-15 04:31N 34°42' E 135°21'0 0.1
2014-Aug-15 03:31N 34°42' E 135°21'5 5.4
2014-Aug-15 02:33N 34°36' E 135°21'4 3.8
2014-Aug-15 01:33N 34°35' E 135°26'0 0.0
2014-Aug-15 00:29N 34°35' E 135°26'1 0.7
2014-Aug-14 23:34N 34°36' E 135°25'6 5.8
2014-Aug-14 22:33N 34°35' E 135°18'0 0.0
2014-Aug-14 21:22N 34°35' E 135°18'0 0.0
2014-Aug-14 20:28N 34°35' E 135°18'0 0.0
2014-Aug-14 19:28N 34°35' E 135°18'0 0.0
2014-Aug-14 18:22N 34°35' E 135°18'0 0.1
2014-Aug-14 17:22N 34°35' E 135°18'0 0.0
2014-Aug-14 16:16N 34°35' E 135°18'0 0.0
2014-Aug-14 15:22N 34°35' E 135°18'0 0.0
2014-Aug-14 14:28N 34°35' E 135°18'0 0.0
2014-Aug-14 13:28N 34°35' E 135°18'0 0.0
2014-Aug-14 12:22N 34°35' E 135°18'0 0.1
2014-Aug-14 11:28N 34°35' E 135°18'0 0.1
2014-Aug-14 10:28N 34°35' E 135°18'0 0.0
2014-Aug-14 09:28N 34°35' E 135°18'0 0.0
2014-Aug-14 08:28N 34°35' E 135°18'0 0.0
2014-Aug-14 06:28N 34°35' E 135°18'0 0.0
2014-Aug-14 05:16N 34°35' E 135°18'0 0.0
2014-Aug-14 04:28N 34°35' E 135°18'0 0.0
2014-Aug-14 03:28N 34°35' E 135°18'0 0.0
2014-Aug-14 02:28N 34°35' E 135°18'0 0.1
2014-Aug-14 01:22N 34°35' E 135°18'0 0.0
2014-Aug-14 00:28N 34°35' E 135°18'0 0.1
2014-Aug-13 23:28N 34°35' E 135°18'2 0.8
2014-Aug-13 20:33N 34°33' E 135°16'9 8.7
2014-Aug-13 19:34N 34°26' E 135°09'8 8.3
2014-Aug-13 18:33N 34°20' E 135°02'7 7.1
2014-Aug-13 17:33N 34°14' E 134°59'9 9.5
2014-Aug-13 16:33N 34°04' E 135°01'208 5.8
2014-Aug-12 04:27N 34°48' E 139°07'17 8.8
2014-Aug-12 02:31N 34°59' E 139°24'8 8.9
2014-Aug-12 01:33N 35°03' E 139°33'9 9.1
2014-Aug-12 00:33N 35°07' E 139°42'9 9.0
2014-Aug-11 23:33N 35°16' E 139°46'9 9.2
2014-Aug-11 22:33N 35°25' E 139°44'1010.1
2014-Aug-11 21:33N 35°31' E 139°54'5 5.1
2014-Aug-11 20:33N 35°34' E 139°59'0 0.1
2014-Aug-11 19:33N 35°34' E 139°59'0 0.1
2014-Aug-11 18:33N 35°34' E 139°59'0 0.0
2014-Aug-11 17:33N 35°34' E 139°59'0 0.0
2014-Aug-11 16:33N 35°34' E 139°59'0 0.0
2014-Aug-11 15:33N 35°34' E 139°59'0 0.1
2014-Aug-11 14:33N 35°34' E 139°59'0 0.1
2014-Aug-11 13:33N 35°34' E 139°59'0 0.0
2014-Aug-11 12:34N 35°34' E 139°59'0 0.0
2014-Aug-11 11:29N 35°34' E 139°59'0 0.1
2014-Aug-11 10:33N 35°34' E 139°59'0 0.1
2014-Aug-11 09:33N 35°34' E 139°59'0 0.0
2014-Aug-11 08:32N 35°34' E 139°59'0 0.0
2014-Aug-11 07:33N 35°34' E 139°59'0 0.0
2014-Aug-11 06:30N 35°34' E 139°59'  
Track history (hours):
 
Tides and Currents Weather Stations Pressure Air Temp Water Temp Dewpoint Dewpoint Depression Visibility Wind Speed Wind Dir Waves Ship Positions

Yahata Maru

Last reported at 2014-Aug-21 06:26 UTC. Time now 2014-Aug-22 21:40 UTC.
Position N 34°47' E 139°07'.

Length 149 m; draft 4.7 m.

Type: Other ship. MMSI: 431400594.

Date/timePositionNaut miles runAvg speedWind from/ knotsBaromVisibWave heightAir tempDewpointWater temp
2014-Aug-21 06:26N 34°47' E 139°07'16 8.4
2014-Aug-21 04:31N 34°58' E 139°22'8 8.7
2014-Aug-21 03:33N 35°02' E 139°30'9 9.4
2014-Aug-21 02:33N 35°07' E 139°40'9 8.9
2014-Aug-21 01:33N 35°14' E 139°46'9 9.2
2014-Aug-21 00:33N 35°23' E 139°42'5 5.2
2014-Aug-20 23:33N 35°28' E 139°43'0 0.0
2014-Aug-20 22:33N 35°28' E 139°43'0 0.0
2014-Aug-20 21:33N 35°28' E 139°43'0 0.0
2014-Aug-20 20:33N 35°28' E 139°43'0 0.0
2014-Aug-20 19:33N 35°28' E 139°43'0 0.0
2014-Aug-20 18:33N 35°28' E 139°43'3 3.0
2014-Aug-20 17:33N 35°27' E 139°46'9 9.4
2014-Aug-20 16:33N 35°32' E 139°56'8 8.1
2014-Aug-20 15:33N 35°33' E 140°06'0 0.5
2014-Aug-20 14:33N 35°33' E 140°07'0 0.0
2014-Aug-20 13:33N 35°33' E 140°07'0 0.0
2014-Aug-20 12:30N 35°33' E 140°07'0 0.0
2014-Aug-20 11:27N 35°33' E 140°07'0 0.0
2014-Aug-20 10:30N 35°33' E 140°07'0 0.0
2014-Aug-20 09:33N 35°33' E 140°07'0 0.0
2014-Aug-20 08:33N 35°33' E 140°07'0 0.0
2014-Aug-20 07:33N 35°33' E 140°07'0 0.0
2014-Aug-20 06:30N 35°33' E 140°07'0 0.0
2014-Aug-20 05:33N 35°33' E 140°07'0 0.0
2014-Aug-20 04:30N 35°33' E 140°07'0 0.0
2014-Aug-20 03:30N 35°33' E 140°07'0 0.0
2014-Aug-20 02:33N 35°33' E 140°07'0 0.0
2014-Aug-20 01:33N 35°33' E 140°07'0 0.0
2014-Aug-20 00:33N 35°33' E 140°07'0 0.0
2014-Aug-19 23:27N 35°33' E 140°07'0 0.0
2014-Aug-19 22:33N 35°33' E 140°07'0 0.0
2014-Aug-19 21:33N 35°33' E 140°07'0 0.0
2014-Aug-19 20:33N 35°33' E 140°07'0 0.0
2014-Aug-19 19:30N 35°33' E 140°07'0 0.0
2014-Aug-19 18:33N 35°33' E 140°07'0 0.0
2014-Aug-19 17:33N 35°33' E 140°07'0 0.0
2014-Aug-19 16:30N 35°33' E 140°07'0 0.0
2014-Aug-19 15:33N 35°33' E 140°07'0 0.0
2014-Aug-19 14:33N 35°33' E 140°07'0 0.1
2014-Aug-19 13:33N 35°33' E 140°07'5 5.1
2014-Aug-19 12:34N 35°33' E 140°00'9 9.5
2014-Aug-19 11:34N 35°28' E 139°51'10 9.6
2014-Aug-19 10:34N 35°20' E 139°44'9 9.1
2014-Aug-19 09:33N 35°11' E 139°47'9 9.4
2014-Aug-19 08:33N 35°04' E 139°40'1010.0
2014-Aug-19 07:33N 34°57' E 139°30'  
2014-Aug-16 00:05N 34°34' E 134°49'5 9.8
2014-Aug-15 23:32N 34°36' E 134°54'7 7.3
2014-Aug-15 22:33N 34°36' E 135°03'8 8.1
2014-Aug-15 21:33N 34°36' E 135°13'9 8.6
2014-Aug-15 20:33N 34°42' E 135°21'1 0.7
2014-Aug-15 19:33N 34°43' E 135°21'0 0.0
2014-Aug-15 18:32N 34°43' E 135°21'0 0.0
2014-Aug-15 17:32N 34°43' E 135°21'0 0.0
2014-Aug-15 16:32N 34°43' E 135°21'0 0.0
2014-Aug-15 15:32N 34°43' E 135°21'0 0.0
2014-Aug-15 14:32N 34°43' E 135°21'0 0.0
2014-Aug-15 13:32N 34°43' E 135°21'0 0.0
2014-Aug-15 12:32N 34°43' E 135°21'0 0.0
2014-Aug-15 11:26N 34°43' E 135°21'0 0.0
2014-Aug-15 10:26N 34°43' E 135°21'0 0.2
2014-Aug-15 09:33N 34°43' E 135°21'2 1.3
2014-Aug-15 08:19N 34°42' E 135°20'0 0.2
2014-Aug-15 07:33N 34°41' E 135°20'1 0.7
2014-Aug-15 06:31N 34°42' E 135°21'0 0.0
2014-Aug-15 05:31N 34°42' E 135°21'0 0.0
2014-Aug-15 04:31N 34°42' E 135°21'0 0.1
2014-Aug-15 03:31N 34°42' E 135°21'5 5.4
2014-Aug-15 02:33N 34°36' E 135°21'4 3.8
2014-Aug-15 01:33N 34°35' E 135°26'0 0.0
2014-Aug-15 00:29N 34°35' E 135°26'1 0.7
2014-Aug-14 23:34N 34°36' E 135°25'6 5.8
2014-Aug-14 22:33N 34°35' E 135°18'0 0.0
2014-Aug-14 21:22N 34°35' E 135°18'0 0.0
2014-Aug-14 20:28N 34°35' E 135°18'0 0.0
2014-Aug-14 19:28N 34°35' E 135°18'0 0.0
2014-Aug-14 18:22N 34°35' E 135°18'0 0.1
2014-Aug-14 17:22N 34°35' E 135°18'0 0.0
2014-Aug-14 16:16N 34°35' E 135°18'0 0.0
2014-Aug-14 15:22N 34°35' E 135°18'0 0.0
2014-Aug-14 14:28N 34°35' E 135°18'0 0.0
2014-Aug-14 13:28N 34°35' E 135°18'0 0.0
2014-Aug-14 12:22N 34°35' E 135°18'0 0.1
2014-Aug-14 11:28N 34°35' E 135°18'0 0.1
2014-Aug-14 10:28N 34°35' E 135°18'0 0.0
2014-Aug-14 09:28N 34°35' E 135°18'0 0.0
2014-Aug-14 08:28N 34°35' E 135°18'0 0.0
2014-Aug-14 06:28N 34°35' E 135°18'0 0.0
2014-Aug-14 05:16N 34°35' E 135°18'0 0.0
2014-Aug-14 04:28N 34°35' E 135°18'0 0.0
2014-Aug-14 03:28N 34°35' E 135°18'0 0.0
2014-Aug-14 02:28N 34°35' E 135°18'0 0.1
2014-Aug-14 01:22N 34°35' E 135°18'0 0.0
2014-Aug-14 00:28N 34°35' E 135°18'0 0.1
2014-Aug-13 23:28N 34°35' E 135°18'2 0.8
2014-Aug-13 20:33N 34°33' E 135°16'9 8.7
2014-Aug-13 19:34N 34°26' E 135°09'8 8.3
2014-Aug-13 18:33N 34°20' E 135°02'7 7.1
2014-Aug-13 17:33N 34°14' E 134°59'9 9.5
2014-Aug-13 16:33N 34°04' E 135°01'208 5.8
2014-Aug-12 04:27N 34°48' E 139°07'17 8.8
2014-Aug-12 02:31N 34°59' E 139°24'8 8.9
2014-Aug-12 01:33N 35°03' E 139°33'9 9.1
2014-Aug-12 00:33N 35°07' E 139°42'9 9.0
2014-Aug-11 23:33N 35°16' E 139°46'9 9.2
2014-Aug-11 22:33N 35°25' E 139°44'1010.1
2014-Aug-11 21:33N 35°31' E 139°54'5 5.1
2014-Aug-11 20:33N 35°34' E 139°59'0 0.1
2014-Aug-11 19:33N 35°34' E 139°59'0 0.1
2014-Aug-11 18:33N 35°34' E 139°59'0 0.0
2014-Aug-11 17:33N 35°34' E 139°59'0 0.0
2014-Aug-11 16:33N 35°34' E 139°59'0 0.0
2014-Aug-11 15:33N 35°34' E 139°59'0 0.1
2014-Aug-11 14:33N 35°34' E 139°59'0 0.1
2014-Aug-11 13:33N 35°34' E 139°59'0 0.0
2014-Aug-11 12:34N 35°34' E 139°59'0 0.0
2014-Aug-11 11:29N 35°34' E 139°59'0 0.1
2014-Aug-11 10:33N 35°34' E 139°59'0 0.1
2014-Aug-11 09:33N 35°34' E 139°59'0 0.0
2014-Aug-11 08:32N 35°34' E 139°59'0 0.0
2014-Aug-11 07:33N 35°34' E 139°59'0 0.0
2014-Aug-11 06:30N 35°34' E 139°59'  

Dump ship's entire track history